Benchland, Montana
Current Conditions -  °F | °C
As of 7:54 AM on Wednesday 26 Nov 2014 (Local Time) from KLWT Reporting Station
Light Snow Light Snow  
Wind Chill: 22°   Ceiling: 4800
Heat Index: 27°   Visibility: 2.5mi
Dew Point: 24°   Wind: 5mph
Humidity: 89%   Direction: 100°E
Pressure: 30.14"   Gusts: NA
Location:  47.1096°N, 109.884°W
Report Text: KLWT 261454Z AUTO 10004KT 2 1/2SM -SN BR OVC048 M03/M04 A3014 RMK AO2 SNB1356 SLP243 P0000 60001 T10281044 53002
Loading
Personal Weather Stations






























Interactive Weather Map New forecast layout! Learn more

10-Day Weather Forecast

Advertisements
Track Severe Weather on mobile